Time;durP1;ratioP1;P1;durP2;ratioP2;P2;SDS_P1;SDS_P2;PMS_P1;PMS_P2;Temp;Humidity;BMP_temperature;BMP_pressure;BME280_temperature;BME280_humidity;BME280_pressure;Samples;Min_cycle;Max_cycle;Signal;HPM_P1;HPM_P2
2022/04/08 00:00:18;;;;;;;;;0.25;0.00;;;;;10.93;48.26;99865.59;5072135;28;46608;-51
2022/04/08 00:02:43;;;;;;;;;1.00;0.00;;;;;10.66;48.94;99822.94;5038962;28;45479;-50
2022/04/08 00:05:09;;;;;;;;;0.25;0.25;;;;;10.90;48.43;99857.84;5038771;28;45496;-48
2022/04/08 00:07:35;;;;;;;;;0.00;0.00;;;;;10.87;48.21;99861.88;5057032;28;45410;-48
2022/04/08 00:10:00;;;;;;;;;3.00;0.00;;;;;10.75;49.69;99848.16;5038747;28;45542;-50
2022/04/08 00:12:26;;;;;;;;;0.00;0.00;;;;;10.75;49.06;99839.91;5056945;28;45371;-53
2022/04/08 00:14:51;;;;;;;;;0.00;0.00;;;;;10.85;48.74;99848.38;5072089;28;45659;-51
2022/04/08 00:17:17;;;;;;;;;1.00;1.00;;;;;10.91;48.17;99856.75;5057010;28;45650;-49
2022/04/08 00:19:42;;;;;;;;;0.00;0.00;;;;;10.91;48.83;99843.88;5056345;28;45636;-50
2022/04/08 00:22:08;;;;;;;;;2.00;0.00;;;;;10.88;48.54;99838.03;5056281;28;45338;-49
2022/04/08 00:24:33;;;;;;;;;1.00;0.00;;;;;10.94;49.74;99828.84;5056564;28;45360;-50
2022/04/08 00:26:59;;;;;;;;;1.50;0.00;;;;;11.00;48.69;99833.41;5056686;28;45481;-52
2022/04/08 00:29:24;;;;;;;;;1.50;0.75;;;;;11.03;49.11;99832.06;5056575;28;46212;-50
2022/04/08 00:31:57;;;;;;;;;0.00;0.00;;;;;11.01;48.71;99815.00;5056599;28;45690;-51
2022/04/08 00:34:26;;;;;;;;;0.00;0.00;;;;;11.06;49.00;99829.66;5056633;28;45423;-47
2022/04/08 00:36:53;;;;;;;;;0.00;0.00;;;;;11.11;49.17;99837.22;5056717;28;45745;-49
2022/04/08 00:39:19;;;;;;;;;0.80;0.00;;;;;10.88;49.21;99783.13;5055893;28;46599;-47
2022/04/08 00:41:44;;;;;;;;;0.00;0.00;;;;;10.94;49.18;99818.69;5056561;28;45767;-50
2022/04/08 00:44:10;;;;;;;;;0.00;0.00;;;;;11.03;49.99;99819.19;5038033;28;45379;-47
2022/04/08 00:46:38;;;;;;;;;0.25;0.25;;;;;10.95;49.49;99828.59;5056481;28;45538;-50
2022/04/08 00:49:04;;;;;;;;;1.00;1.00;;;;;10.93;50.33;99811.53;5056194;28;46030;-51
2022/04/08 00:51:31;;;;;;;;;4.00;0.00;;;;;10.96;50.31;99822.06;5055173;28;45768;-51
2022/04/08 00:53:56;;;;;;;;;0.00;0.00;;;;;11.04;49.98;99823.59;5038088;28;45471;-48
2022/04/08 00:56:22;;;;;;;;;2.00;0.00;;;;;11.04;49.93;99820.03;5038245;28;45583;-54
2022/04/08 00:58:47;;;;;;;;;1.00;0.00;;;;;10.81;50.29;99783.22;5037688;28;46224;-52
2022/04/08 01:01:13;;;;;;;;;0.25;0.25;;;;;10.99;49.88;99809.72;5038618;28;45405;-51
2022/04/08 01:03:38;;;;;;;;;0.00;0.00;;;;;10.91;50.22;99821.91;5055761;28;45346;-53
2022/04/08 01:06:04;;;;;;;;;0.75;0.75;;;;;11.00;50.63;99811.44;5038334;28;45490;-52
2022/04/08 01:08:30;;;;;;;;;1.25;0.00;;;;;10.95;49.98;99801.13;5037975;28;45961;-48
2022/04/08 01:10:55;;;;;;;;;0.00;0.00;;;;;10.89;50.16;99804.81;5048792;28;45633;-52
2022/04/08 01:13:21;;;;;;;;;0.50;0.25;;;;;11.00;50.21;99813.31;5036169;28;45332;-51
2022/04/08 01:15:47;;;;;;;;;1.00;0.00;;;;;11.00;49.91;99796.84;5037170;28;45291;-49
2022/04/08 01:18:13;;;;;;;;;0.00;0.00;;;;;11.15;50.26;99804.63;5036702;28;47347;-48
2022/04/08 01:20:38;;;;;;;;;0.75;0.00;;;;;11.19;50.35;99795.66;5055661;28;45449;-48
2022/04/08 01:23:04;;;;;;;;;0.75;0.75;;;;;11.03;50.09;99766.16;5051424;28;45324;-51
2022/04/08 01:25:30;;;;;;;;;3.00;0.00;;;;;10.99;50.57;99765.81;5053347;28;45589;-51
2022/04/08 01:27:56;;;;;;;;;3.75;1.75;;;;;11.08;50.36;99780.88;5054636;28;46133;-54
2022/04/08 01:30:21;;;;;;;;;1.75;1.00;;;;;10.98;50.02;99781.47;5036630;28;45403;-51
2022/04/08 01:32:47;;;;;;;;;0.50;0.00;;;;;10.96;49.77;99793.75;5055045;28;45299;-50
2022/04/08 01:35:13;;;;;;;;;0.00;0.00;;;;;10.98;50.66;99794.34;5069197;28;45449;-48
2022/04/08 01:37:39;;;;;;;;;1.40;0.20;;;;;11.06;50.08;99804.13;5055377;28;47656;-48
2022/04/08 01:40:05;;;;;;;;;0.00;0.00;;;;;11.08;49.89;99791.00;5052467;28;45462;-48
2022/04/08 01:42:30;;;;;;;;;0.60;0.60;;;;;10.68;50.34;99722.00;5054298;28;45401;-49
2022/04/08 01:44:56;;;;;;;;;0.00;0.00;;;;;10.92;50.61;99765.94;5055837;28;45474;-50
2022/04/08 01:47:22;;;;;;;;;1.25;0.00;;;;;10.93;50.87;99775.00;5055241;28;46490;-49
2022/04/08 01:49:48;;;;;;;;;0.00;0.00;;;;;10.87;50.55;99779.53;5071114;28;45279;-53
2022/04/08 01:52:13;;;;;;;;;2.25;0.75;;;;;10.82;50.79;99780.25;5055728;28;45534;-49
2022/04/08 01:54:39;;;;;;;;;1.00;1.00;;;;;10.83;50.52;99775.56;5055789;28;45607;-50
2022/04/08 01:57:04;;;;;;;;;2.00;1.00;;;;;10.89;51.09;99780.13;5054040;28;46653;-49
2022/04/08 01:59:30;;;;;;;;;1.25;0.75;;;;;10.85;50.91;99762.47;5054778;28;45669;-48
2022/04/08 02:01:56;;;;;;;;;0.75;0.50;;;;;10.84;50.95;99769.88;5055442;28;45439;-49
2022/04/08 02:04:22;;;;;;;;;0.20;0.00;;;;;10.81;50.83;99767.59;5055295;28;45689;-50
2022/04/08 02:06:47;;;;;;;;;1.50;1.50;;;;;10.94;51.18;99773.94;5071025;28;46716;-49
2022/04/08 02:09:13;;;;;;;;;1.00;0.00;;;;;10.88;50.90;99772.97;5055034;28;45381;-50
2022/04/08 02:11:39;;;;;;;;;1.25;0.25;;;;;10.89;51.52;99774.63;5055136;28;45419;-51
2022/04/08 02:14:05;;;;;;;;;0.00;0.00;;;;;10.73;50.81;99739.66;5055369;28;45626;-49
2022/04/08 02:16:30;;;;;;;;;0.00;0.00;;;;;10.70;51.45;99739.09;5057494;28;46610;-53
2022/04/08 02:18:56;;;;;;;;;0.75;0.75;;;;;10.93;50.55;99764.84;5058522;28;45366;-49
2022/04/08 02:21:22;;;;;;;;;0.00;0.00;;;;;10.86;50.91;99753.16;5058501;28;45381;-51
2022/04/08 02:23:51;;;;;;;;;0.00;0.00;;;;;10.96;51.53;99767.16;5058260;28;45547;-48
2022/04/08 02:26:17;;;;;;;;;1.00;0.00;;;;;11.01;51.52;99760.09;5058159;28;46060;-52
2022/04/08 02:28:43;;;;;;;;;0.00;0.00;;;;;10.96;51.58;99758.06;5058585;28;45381;-49
2022/04/08 02:31:09;;;;;;;;;1.20;1.20;;;;;10.63;51.44;99699.94;5058193;28;45424;-48
2022/04/08 02:33:34;;;;;;;;;0.00;0.00;;;;;10.94;51.48;99758.28;5039806;28;45576;-46
2022/04/08 02:36:00;;;;;;;;;0.00;0.00;;;;;10.97;51.42;99744.09;5057944;28;45360;-55
2022/04/08 02:38:26;;;;;;;;;0.00;0.00;;;;;11.03;51.49;99756.03;5058346;28;45280;-50
2022/04/08 02:40:52;;;;;;;;;2.50;0.00;;;;;10.97;51.84;99746.00;5058096;28;45401;-49
2022/04/08 02:43:17;;;;;;;;;1.00;1.00;;;;;10.94;51.04;99744.56;5057461;28;45604;-53
2022/04/08 02:45:43;;;;;;;;;1.50;0.50;;;;;11.03;51.74;99745.03;5057928;28;45433;-48
2022/04/08 02:48:08;;;;;;;;;0.50;0.00;;;;;11.04;51.15;99735.72;5057902;28;45380;-49
2022/04/08 02:50:34;;;;;;;;;0.50;0.50;;;;;11.04;51.43;99741.22;5039944;28;45351;-51
2022/04/08 02:52:59;;;;;;;;;0.00;0.00;;;;;11.07;51.92;99739.91;5057258;28;45591;-49
2022/04/08 02:55:25;;;;;;;;;0.00;0.00;;;;;11.00;51.82;99739.19;5057776;28;45889;-48
2022/04/08 02:57:50;;;;;;;;;1.00;1.00;;;;;11.02;51.63;99734.28;5042181;28;45823;-49
2022/04/08 03:00:17;;;;;;;;;0.50;0.25;;;;;10.30;52.29;99639.03;5058039;28;45337;-48
2022/04/08 03:02:43;;;;;;;;;0.40;0.00;;;;;10.70;52.49;99684.19;5058234;28;45255;-49
2022/04/08 03:05:09;;;;;;;;;0.00;0.00;;;;;11.04;52.50;99724.75;5056438;28;46492;-51
2022/04/08 03:07:34;;;;;;;;;0.75;0.75;;;;;11.04;52.38;99719.25;5057975;28;45397;-51
2022/04/08 03:10:01;;;;;;;;;0.50;0.50;;;;;10.88;52.05;99684.31;5056105;28;45414;-47
2022/04/08 03:12:26;;;;;;;;;0.00;0.00;;;;;10.97;52.17;99708.41;5056757;28;45509;-49
2022/04/08 03:14:52;;;;;;;;;1.00;1.00;;;;;11.05;52.32;99720.09;5057529;28;45396;-48
2022/04/08 03:17:17;;;;;;;;;0.00;0.00;;;;;10.98;52.25;99699.09;5057735;28;45402;-50
2022/04/08 03:19:43;;;;;;;;;4.75;1.00;;;;;11.08;52.63;99714.97;5056547;28;45322;-49
2022/04/08 03:22:08;;;;;;;;;0.00;0.00;;;;;10.88;52.76;99670.56;5057679;28;45413;-50
2022/04/08 03:24:34;;;;;;;;;1.00;1.00;;;;;11.14;53.58;99707.66;5057363;28;46385;-53
2022/04/08 03:26:59;;;;;;;;;1.25;0.50;;;;;11.12;53.51;99696.91;5055815;28;45439;-50
2022/04/08 03:29:25;;;;;;;;;0.00;0.00;;;;;11.21;53.32;99699.31;5057824;28;45316;-48
2022/04/08 03:31:50;;;;;;;;;2.00;0.25;;;;;11.23;54.00;99702.63;5056053;28;45598;-51
2022/04/08 03:34:16;;;;;;;;;1.50;0.00;;;;;11.23;54.86;99700.72;5057158;28;45451;-49
2022/04/08 03:36:42;;;;;;;;;1.00;1.00;;;;;11.20;54.97;99714.94;5057104;28;45396;-47
2022/04/08 03:39:09;;;;;;;;;0.00;0.00;;;;;11.21;55.21;99713.84;5057470;28;45386;-47
2022/04/08 03:41:34;;;;;;;;;2.60;0.00;;;;;11.18;55.89;99702.50;5057382;28;45831;-48
2022/04/08 03:44:00;;;;;;;;;0.75;0.00;;;;;11.22;57.00;99704.53;5024363;27;45517;-49
2022/04/08 03:46:26;;;;;;;;;1.75;0.00;;;;;11.20;57.36;99695.72;5037286;28;45469;-49
2022/04/08 03:48:51;;;;;;;;;1.00;1.00;;;;;11.23;57.63;99691.66;5037111;28;45245;-50
2022/04/08 03:51:17;;;;;;;;;1.00;1.00;;;;;10.80;56.96;99628.69;5037210;28;45780;-48
2022/04/08 03:53:43;;;;;;;;;1.75;1.00;;;;;11.09;57.93;99672.69;5036855;28;46594;-48
2022/04/08 03:56:08;;;;;;;;;1.75;0.50;;;;;11.14;58.13;99660.97;5036745;28;45401;-49
2022/04/08 03:58:34;;;;;;;;;1.00;1.00;;;;;10.95;58.62;99628.16;5035556;28;45295;-52
2022/04/08 04:01:00;;;;;;;;;4.25;1.00;;;;;11.15;58.76;99651.66;5037244;28;45378;-52
2022/04/08 04:03:25;;;;;;;;;2.00;0.00;;;;;11.11;59.14;99637.56;5035771;28;45312;-51
2022/04/08 04:05:51;;;;;;;;;2.50;2.50;;;;;11.12;59.45;99644.72;5035536;28;45421;-51
2022/04/08 04:08:18;;;;;;;;;1.00;1.00;;;;;11.07;59.15;99624.56;5037322;28;45410;-49
2022/04/08 04:10:47;;;;;;;;;2.40;1.00;;;;;11.12;59.06;99627.44;5035756;28;45632;-53
2022/04/08 04:13:13;;;;;;;;;2.60;2.00;;;;;11.13;59.16;99620.84;5036464;28;46930;-51
2022/04/08 04:15:38;;;;;;;;;1.00;1.00;;;;;10.89;58.43;99584.41;5035444;28;45438;-51
2022/04/08 04:18:04;;;;;;;;;0.00;0.00;;;;;11.12;59.50;99608.22;5037307;28;45370;-49
2022/04/08 04:20:30;;;;;;;;;1.00;1.00;;;;;11.05;58.89;99594.59;5035788;28;45291;-54
2022/04/08 04:22:55;;;;;;;;;2.50;1.00;;;;;11.10;58.91;99602.13;5036750;28;45762;-49
2022/04/08 04:25:21;;;;;;;;;1.00;1.00;;;;;10.91;59.88;99561.13;5036453;28;45481;-47
2022/04/08 04:27:46;;;;;;;;;2.50;1.00;;;;;11.09;59.08;99590.31;5035923;28;45810;-48
2022/04/08 04:30:12;;;;;;;;;2.25;2.00;;;;;11.09;59.59;99589.47;5037027;28;45360;-49
2022/04/08 04:32:37;;;;;;;;;1.75;0.00;;;;;10.84;60.75;99543.97;5036427;28;46976;-51
2022/04/08 04:35:06;;;;;;;;;1.00;0.25;;;;;11.11;60.46;99576.34;5069025;28;45933;-49
2022/04/08 04:37:37;;;;;;;;;0.40;0.40;;;;;11.10;60.30;99569.19;5035580;28;45349;-50
2022/04/08 04:40:03;;;;;;;;;2.00;0.00;;;;;11.09;60.16;99568.34;5036866;28;45383;-52
2022/04/08 04:42:29;;;;;;;;;3.00;2.00;;;;;11.04;60.51;99560.00;5051616;28;46752;-50
2022/04/08 04:44:55;;;;;;;;;0.25;0.25;;;;;11.04;60.21;99561.91;5029015;28;45322;-47
2022/04/08 04:47:21;;;;;;;;;1.20;1.00;;;;;11.04;60.27;99560.00;5036215;28;45480;-48
2022/04/08 04:49:46;;;;;;;;;2.00;2.00;;;;;10.97;61.08;99546.41;5036362;28;45224;-47
2022/04/08 04:52:12;;;;;;;;;1.00;1.00;;;;;10.97;60.58;99540.09;5051155;28;45341;-48
2022/04/08 04:54:37;;;;;;;;;0.00;0.00;;;;;10.82;60.24;99535.13;5036113;28;45364;-53
2022/04/08 04:57:03;;;;;;;;;4.50;1.75;;;;;10.80;61.19;99516.16;5036251;28;45374;-48
2022/04/08 04:59:29;;;;;;;;;0.60;0.60;;;;;10.90;60.11;99518.28;5034637;28;45582;-49
2022/04/08 05:01:55;;;;;;;;;5.25;1.00;;;;;10.82;61.19;99511.25;5035610;28;45513;-51
2022/04/08 05:04:21;;;;;;;;;2.40;2.20;;;;;10.63;60.48;99471.34;5036081;28;45442;-48
2022/04/08 05:06:47;;;;;;;;;1.00;1.00;;;;;10.77;61.59;99505.66;5035591;28;45266;-47
2022/04/08 05:09:12;;;;;;;;;1.00;0.75;;;;;10.80;61.89;99499.69;5036219;28;45342;-51
2022/04/08 05:11:38;;;;;;;;;2.25;1.00;;;;;10.82;60.87;99496.69;5034144;28;47582;-48
2022/04/08 05:14:04;;;;;;;;;0.25;0.25;;;;;10.64;61.87;99479.34;5035432;28;45436;-48
2022/04/08 05:16:29;;;;;;;;;1.75;1.00;;;;;10.65;61.88;99480.16;5035788;28;45419;-52
2022/04/08 05:18:55;;;;;;;;;0.25;0.00;;;;;10.62;62.24;99456.78;5036036;28;45279;-49
2022/04/08 05:21:21;;;;;;;;;1.75;1.00;;;;;10.54;62.08;99436.06;5035340;28;46430;-50
2022/04/08 05:23:46;;;;;;;;;3.25;1.50;;;;;10.54;61.66;99427.84;5035433;28;45405;-54
2022/04/08 05:26:13;;;;;;;;;1.00;1.00;;;;;10.82;61.88;99459.09;5051115;28;45400;-52
2022/04/08 05:28:38;;;;;;;;;2.20;1.00;;;;;10.83;61.44;99457.19;5068022;28;45434;-49
2022/04/08 05:31:04;;;;;;;;;1.00;1.00;;;;;10.83;61.25;99454.44;5067614;28;46146;-50
2022/04/08 05:33:29;;;;;;;;;2.00;2.00;;;;;10.84;60.85;99445.16;5035249;28;45373;-48
2022/04/08 05:35:55;;;;;;;;;1.00;1.00;;;;;10.87;61.92;99441.06;5034390;28;45412;-48
2022/04/08 05:38:20;;;;;;;;;1.00;1.00;;;;;10.54;61.72;99405.06;5034334;28;45360;-49
2022/04/08 05:40:46;;;;;;;;;2.75;0.75;;;;;10.67;61.37;99439.63;5067368;28;46130;-50
2022/04/08 05:43:11;;;;;;;;;1.00;1.00;;;;;10.59;61.85;99418.88;5035418;28;45396;-51
2022/04/08 05:45:37;;;;;;;;;2.00;1.00;;;;;10.60;62.60;99425.19;5035130;28;45386;-50
2022/04/08 05:48:04;;;;;;;;;2.00;1.00;;;;;10.44;62.45;99403.78;5035386;28;45431;-48
2022/04/08 05:50:29;;;;;;;;;1.00;0.60;;;;;10.61;61.83;99408.47;5035057;28;45701;-48
2022/04/08 05:52:55;;;;;;;;;0.75;0.75;;;;;10.46;61.69;99378.00;5034867;28;45448;-48
2022/04/08 05:55:20;;;;;;;;;0.00;0.00;;;;;10.64;61.12;99405.25;5034108;28;45514;-46
2022/04/08 05:57:47;;;;;;;;;1.75;1.75;;;;;10.55;62.00;99388.34;5067399;28;45588;-48
2022/04/08 06:00:13;;;;;;;;;1.40;0.40;;;;;10.61;61.34;99391.19;5041043;27;45858;-54
2022/04/08 06:02:39;;;;;;;;;1.00;1.00;;;;;10.54;61.22;99377.63;5030808;28;45977;-49
2022/04/08 06:05:06;;;;;;;;;2.50;1.00;;;;;10.52;61.84;99388.00;5034149;28;45386;-49
2022/04/08 06:07:31;;;;;;;;;2.00;0.80;;;;;10.39;62.13;99359.75;5034962;28;45543;-50
2022/04/08 06:09:59;;;;;;;;;1.50;1.50;;;;;10.50;61.58;99381.91;5033411;28;46939;-53
2022/04/08 06:12:25;;;;;;;;;2.00;1.00;;;;;10.54;62.72;99374.88;5033451;28;45370;-49
2022/04/08 06:14:50;;;;;;;;;0.00;0.00;;;;;9.92;61.64;99261.25;5067234;28;45899;-50
2022/04/08 06:17:16;;;;;;;;;2.00;2.00;;;;;10.24;62.58;99308.19;5035166;28;45855;-54
2022/04/08 06:19:45;;;;;;;;;4.00;1.00;;;;;10.49;61.39;99337.22;5033243;28;48263;-49
2022/04/08 06:22:11;;;;;;;;;0.80;0.80;;;;;10.51;62.34;99336.97;5034749;28;45423;-50
2022/04/08 06:24:36;;;;;;;;;2.60;2.00;;;;;10.47;62.58;99314.69;5034681;28;45713;-51
2022/04/08 06:27:02;;;;;;;;;1.50;1.00;;;;;10.53;61.89;99319.19;5033794;28;45851;-51
2022/04/08 06:29:27;;;;;;;;;0.75;0.50;;;;;10.55;63.66;99310.69;5034848;28;45436;-49
2022/04/08 06:31:53;;;;;;;;;3.00;1.50;;;;;10.57;62.03;99309.38;5034672;28;45391;-53
2022/04/08 06:34:18;;;;;;;;;1.00;1.00;;;;;10.54;62.81;99300.78;5034417;28;45472;-52
2022/04/08 06:36:44;;;;;;;;;1.00;1.00;;;;;10.61;62.62;99303.41;5034838;28;45443;-50
2022/04/08 06:39:09;;;;;;;;;1.00;1.00;;;;;10.61;63.27;99297.91;5016355;28;47058;-51
2022/04/08 06:41:35;;;;;;;;;7.75;2.00;;;;;10.60;62.94;99304.44;5034713;28;45794;-47
2022/04/08 06:44:02;;;;;;;;;2.50;1.25;;;;;10.60;63.46;99298.97;5034956;28;45387;-49
2022/04/08 06:46:28;;;;;;;;;0.00;0.00;;;;;10.59;62.80;99292.66;5034450;28;45724;-50
2022/04/08 06:48:54;;;;;;;;;2.50;1.00;;;;;10.57;62.11;99297.56;5034437;28;46642;-51
2022/04/08 06:51:20;;;;;;;;;1.20;1.20;;;;;10.56;62.85;99296.72;5034513;28;45326;-48
2022/04/08 06:53:45;;;;;;;;;2.25;1.25;;;;;10.42;63.62;99287.97;5032792;28;45358;-50
2022/04/08 06:56:11;;;;;;;;;1.25;1.25;;;;;10.49;63.22;99297.97;5033386;28;45355;-50
2022/04/08 06:58:39;;;;;;;;;2.00;2.00;;;;;10.40;63.58;99275.53;5032704;28;46186;-48
2022/04/08 07:01:07;;;;;;;;;1.40;1.40;;;;;10.56;64.31;99288.50;5022651;28;46844;-53
2022/04/08 07:03:33;;;;;;;;;1.40;1.00;;;;;10.57;63.61;99289.34;5035109;28;45413;-53
2022/04/08 07:05:58;;;;;;;;;4.20;2.80;;;;;10.34;64.16;99260.09;5032814;28;45328;-50
2022/04/08 07:08:24;;;;;;;;;3.50;2.00;;;;;10.46;63.72;99271.03;5036658;28;45792;-49
2022/04/08 07:10:49;;;;;;;;;2.75;2.75;;;;;10.57;64.14;99292.09;5070142;28;45363;-50
2022/04/08 07:13:15;;;;;;;;;2.50;1.50;;;;;10.56;63.90;99291.25;5037813;28;45330;-48
2022/04/08 07:15:41;;;;;;;;;3.75;3.75;;;;;10.60;64.52;99286.09;5036432;28;45259;-49
2022/04/08 07:18:06;;;;;;;;;3.25;3.25;;;;;10.62;63.46;99278.44;5036121;28;46486;-49
2022/04/08 07:20:32;;;;;;;;;4.75;3.00;;;;;10.55;63.20;99255.81;5035247;28;45474;-53
2022/04/08 07:23:02;;;;;;;;;2.50;2.00;;;;;10.56;64.01;99258.31;5036641;28;45405;-53
2022/04/08 07:25:28;;;;;;;;;3.80;3.20;;;;;10.57;64.14;99249.00;5052538;28;45627;-49
2022/04/08 07:27:58;;;;;;;;;11.75;9.25;;;;;10.64;63.86;99253.50;5035781;28;46381;-51
2022/04/08 07:30:24;;;;;;;;;3.20;3.20;;;;;10.61;63.99;99243.03;5036135;28;45408;-48
2022/04/08 07:32:52;;;;;;;;;7.80;3.80;;;;;10.60;64.88;99236.72;5053288;28;45479;-48
2022/04/08 07:35:18;;;;;;;;;4.00;4.00;;;;;10.60;64.23;99228.47;5037615;28;45433;-50
2022/04/08 07:37:44;;;;;;;;;4.80;3.00;;;;;10.43;64.02;99196.41;5037145;28;45638;-51
2022/04/08 07:40:11;;;;;;;;;5.20;3.60;;;;;10.38;64.44;99182.56;5036183;28;45393;-49
2022/04/08 07:42:37;;;;;;;;;3.40;3.40;;;;;10.51;64.19;99208.03;5037478;28;45395;-50
2022/04/08 07:45:03;;;;;;;;;2.50;2.25;;;;;10.39;64.69;99184.22;5022445;28;45414;-51
2022/04/08 07:47:29;;;;;;;;;4.80;4.80;;;;;10.46;65.28;99175.03;5031235;28;45516;-51
2022/04/08 07:49:59;;;;;;;;;2.50;2.50;;;;;10.48;65.61;99168.22;5030319;28;45747;-54
2022/04/08 07:52:28;;;;;;;;;5.80;4.00;;;;;10.49;65.00;99171.78;5035830;28;45548;-55
2022/04/08 07:54:54;;;;;;;;;1.60;1.40;;;;;10.41;64.94;99176.56;5068171;28;45467;-50
2022/04/08 07:57:20;;;;;;;;;2.20;2.00;;;;;10.29;63.73;99170.31;5068133;28;47505;-49
2022/04/08 07:59:46;;;;;;;;;5.75;3.00;;;;;10.28;63.69;99163.19;5052651;28;45592;-49
2022/04/08 08:02:11;;;;;;;;;2.75;1.25;;;;;10.08;63.59;99126.13;5030766;28;45442;-50
2022/04/08 08:04:37;;;;;;;;;3.00;1.00;;;;;10.33;64.09;99149.56;5032489;28;45423;-51
2022/04/08 08:07:03;;;;;;;;;1.20;1.20;;;;;10.33;65.04;99156.94;5013474;28;46497;-53
2022/04/08 08:09:29;;;;;;;;;1.75;1.75;;;;;10.17;64.96;99123.81;5024159;28;45497;-54
2022/04/08 08:11:54;;;;;;;;;3.00;1.25;;;;;10.15;65.26;99117.75;5046131;28;45369;-53
2022/04/08 08:14:20;;;;;;;;;2.25;1.00;;;;;10.17;64.80;99110.94;5028477;28;45466;-55
2022/04/08 08:16:45;;;;;;;;;3.25;2.25;;;;;10.16;64.24;99122.16;5031866;28;46273;-49
2022/04/08 08:19:11;;;;;;;;;2.25;2.00;;;;;10.16;65.19;99122.16;5030763;28;45662;-52
2022/04/08 08:21:37;;;;;;;;;2.00;2.00;;;;;10.15;66.23;99104.03;5028671;28;45786;-53
2022/04/08 08:24:03;;;;;;;;;2.00;2.00;;;;;10.02;65.89;99086.00;5031984;28;45518;-49
2022/04/08 08:26:29;;;;;;;;;2.00;2.00;;;;;10.15;65.51;99098.56;5029188;28;46519;-48
2022/04/08 08:28:56;;;;;;;;;2.00;2.00;;;;;10.15;65.94;99099.38;5032070;28;45906;-50
2022/04/08 08:31:22;;;;;;;;;2.00;2.00;;;;;10.03;64.88;99095.88;5047252;28;45532;-49
2022/04/08 08:33:47;;;;;;;;;0.80;0.80;;;;;9.86;65.00;99088.50;5063609;28;45796;-47
2022/04/08 08:36:13;;;;;;;;;1.00;1.00;;;;;9.66;65.97;99079.91;5030713;28;46403;-53
2022/04/08 08:38:38;;;;;;;;;1.00;1.00;;;;;9.70;66.22;99072.84;5030301;28;45781;-53
2022/04/08 08:41:04;;;;;;;;;3.75;1.25;;;;;9.66;65.81;99072.50;5031734;28;45419;-51
2022/04/08 08:43:30;;;;;;;;;2.50;1.00;;;;;9.61;65.66;99056.00;5032092;28;45725;-50
2022/04/08 08:45:56;;;;;;;;;1.00;1.00;;;;;9.63;66.09;99057.44;5017771;28;47575;-48
2022/04/08 08:48:22;;;;;;;;;1.00;0.00;;;;;9.36;65.91;99046.25;5050709;28;45532;-48
2022/04/08 08:50:48;;;;;;;;;0.50;0.25;;;;;9.47;66.43;99063.69;5066235;28;45515;-50
2022/04/08 08:53:20;;;;;;;;;1.80;0.60;;;;;9.45;67.39;99060.38;5050358;28;45681;-50
2022/04/08 08:55:49;;;;;;;;;1.60;1.60;;;;;9.38;66.07;99037.81;5048586;28;45601;-51
2022/04/08 08:58:15;;;;;;;;;1.00;1.00;;;;;9.37;67.03;99036.97;5050058;28;45542;-53
2022/04/08 09:00:41;;;;;;;;;2.00;2.00;;;;;9.46;67.31;99013.56;5051055;28;45413;-52
2022/04/08 09:03:07;;;;;;;;;2.00;2.00;;;;;9.55;67.63;99003.03;5048589;28;45718;-51
2022/04/08 09:05:53;;;;;;;;;2.80;2.00;;;;;9.61;66.72;99007.53;5049714;28;45895;-50
2022/04/08 09:08:19;;;;;;;;;1.00;1.00;;;;;9.70;66.11;99004.34;5051342;28;45544;-49
2022/04/08 09:10:47;;;;;;;;;1.00;1.00;;;;;9.76;66.86;98993.25;5033755;28;45793;-47
2022/04/08 09:13:16;;;;;;;;;0.00;0.00;;;;;9.44;66.49;98960.13;5038927;28;45690;-49
2022/04/08 09:15:57;;;;;;;;;2.00;2.00;;;;;9.65;66.94;98976.91;5051022;28;45609;-49
2022/04/08 09:18:23;;;;;;;;;2.20;1.00;;;;;9.59;67.06;98954.91;5041344;28;46018;-49
2022/04/08 09:20:50;;;;;;;;;1.25;1.25;;;;;9.46;67.48;98925.94;5049155;28;45431;-50
2022/04/08 09:23:17;;;;;;;;;4.20;1.80;;;;;9.71;66.45;98959.47;5050409;28;45849;-47
2022/04/08 09:25:42;;;;;;;;;1.80;1.80;;;;;9.54;66.32;98935.66;5046546;28;46590;-49
2022/04/08 09:28:11;;;;;;;;;2.00;2.00;;;;;9.58;66.62;98935.97;5048971;28;45887;-52
2022/04/08 09:30:40;;;;;;;;;2.60;2.00;;;;;9.27;66.40;98908.09;5079318;27;45988;-52
2022/04/08 09:33:13;;;;;;;;;2.20;0.40;;;;;9.51;67.20;98949.84;5049571;28;46017;-51
2022/04/08 09:35:40;;;;;;;;;2.00;2.00;;;;;9.44;66.90;98944.53;5050668;28;45553;-51
2022/04/08 09:38:05;;;;;;;;;1.60;1.60;;;;;9.52;66.91;98956.97;5047663;28;45755;-50
2022/04/08 09:40:49;;;;;;;;;2.00;1.00;;;;;9.45;67.41;98978.22;5050074;28;45424;-54
2022/04/08 09:43:15;;;;;;;;;0.80;0.80;;;;;9.42;67.65;98971.34;5047482;28;45871;-53
2022/04/08 09:45:41;;;;;;;;;1.80;1.80;;;;;9.48;67.99;98974.97;5026671;28;45562;-50
2022/04/08 09:48:07;;;;;;;;;3.00;2.00;;;;;9.41;67.45;98988.84;5026865;28;45760;-50
2022/04/08 09:50:33;;;;;;;;;5.40;1.40;;;;;9.36;67.47;98981.34;5029260;28;45451;-48
2022/04/08 09:52:59;;;;;;;;;4.00;1.00;;;;;9.34;67.87;98971.75;5028075;28;45473;-50
2022/04/08 09:55:25;;;;;;;;;2.50;1.25;;;;;9.19;67.47;98972.31;5030312;28;45811;-49
2022/04/08 09:57:56;;;;;;;;;0.00;0.00;;;;;9.24;68.32;98986.09;4995322;28;45472;-50
2022/04/08 10:00:22;;;;;;;;;1.00;1.00;;;;;9.20;67.14;98983.00;5045934;28;45708;-52
2022/04/08 10:02:48;;;;;;;;;0.25;0.25;;;;;9.15;67.50;98982.06;5029676;28;45679;-52
2022/04/08 10:05:14;;;;;;;;;1.00;1.00;;;;;9.02;67.01;98944.91;5028823;28;45642;-51
2022/04/08 10:07:40;;;;;;;;;3.00;1.25;;;;;8.98;68.16;98930.03;5030752;28;45539;-52
2022/04/08 10:10:21;;;;;;;;;1.00;1.00;;;;;9.08;68.80;98958.41;5028803;28;45446;-49
2022/04/08 10:12:52;;;;;;;;;7.00;3.60;;;;;9.15;68.69;98988.38;4998644;28;45428;-52
2022/04/08 10:15:34;;;;;;;;;1.40;1.40;;;;;9.17;67.52;99010.03;5023785;28;46349;-50
2022/04/08 10:18:03;;;;;;;;;1.60;1.60;;;;;9.16;67.43;98967.31;5030692;28;45591;-49
2022/04/08 10:20:29;;;;;;;;;3.00;2.00;;;;;9.01;68.34;98965.16;5012960;28;45555;-52
2022/04/08 10:23:10;;;;;;;;;2.25;2.25;;;;;8.98;68.05;98961.00;5030855;28;45409;-52
2022/04/08 10:25:40;;;;;;;;;2.00;1.00;;;;;8.88;68.94;98956.16;5030288;28;46926;-54
2022/04/08 10:28:09;;;;;;;;;2.20;2.20;;;;;8.77;68.98;98927.78;5044531;28;45507;-50
2022/04/08 10:30:42;;;;;;;;;7.80;3.00;;;;;8.78;67.85;98940.38;5029262;28;45428;-48
2022/04/08 10:33:07;;;;;;;;;2.40;2.40;;;;;8.96;69.34;98946.69;5030775;28;45464;-48
2022/04/08 10:35:33;;;;;;;;;2.25;2.25;;;;;8.85;68.46;98901.91;5030135;28;46308;-52
2022/04/08 10:38:03;;;;;;;;;4.25;2.00;;;;;9.16;68.64;98921.63;5032691;28;46101;-49
2022/04/08 10:40:36;;;;;;;;;2.60;2.40;;;;;9.03;68.20;98889.91;5037199;28;45408;-49
2022/04/08 10:43:05;;;;;;;;;5.80;3.40;;;;;8.91;67.44;98883.69;5034001;28;45594;-53
2022/04/08 10:45:31;;;;;;;;;2.00;2.00;;;;;8.95;67.93;98855.59;5024573;28;46276;-52
2022/04/08 10:48:00;;;;;;;;;3.20;3.20;;;;;8.93;67.77;98844.03;5032359;28;45454;-50
2022/04/08 10:50:27;;;;;;;;;3.60;3.00;;;;;9.07;68.57;98849.19;5032588;28;45754;-50
2022/04/08 10:53:07;;;;;;;;;7.00;3.00;;;;;9.05;68.54;98802.09;5034011;28;45689;-51
2022/04/08 10:55:47;;;;;;;;;2.80;2.80;;;;;9.11;68.94;98794.81;5063794;28;45746;-49
2022/04/08 10:58:15;;;;;;;;;6.00;4.00;;;;;9.51;68.18;98861.38;5033571;28;45887;-52
2022/04/08 11:00:41;;;;;;;;;4.00;4.00;;;;;9.60;68.01;98857.94;5031738;28;45668;-52
2022/04/08 11:03:10;;;;;;;;;6.75;4.00;;;;;9.33;68.58;98790.22;5019002;28;45830;-52
2022/04/08 11:05:38;;;;;;;;;5.60;5.60;;;;;9.42;68.87;98867.28;5032966;28;46077;-55
2022/04/08 11:08:04;;;;;;;;;3.60;2.00;;;;;9.32;67.74;98884.38;5048778;28;45534;-52
2022/04/08 11:10:31;;;;;;;;;6.80;6.00;;;;;9.20;68.07;98851.63;5033769;28;45428;-50
2022/04/08 11:12:57;;;;;;;;;3.20;3.20;;;;;9.20;68.37;98883.63;5033654;28;45980;-50
2022/04/08 11:15:23;;;;;;;;;6.25;4.00;;;;;9.29;67.88;98871.16;5030617;28;46206;-52
2022/04/08 11:17:49;;;;;;;;;7.80;4.40;;;;;9.38;68.41;98862.56;5032290;28;45391;-50
2022/04/08 11:20:19;;;;;;;;;6.00;3.20;;;;;9.48;68.60;98881.88;5033760;28;45457;-49
2022/04/08 11:22:46;;;;;;;;;4.00;2.80;;;;;9.65;68.48;98867.34;5033566;28;45712;-48
2022/04/08 11:25:23;;;;;;;;;7.00;5.20;;;;;9.77;68.07;98863.41;5031612;28;47245;-50
2022/04/08 11:28:02;;;;;;;;;6.00;4.00;;;;;9.86;68.13;98862.94;5032265;28;45535;-49
2022/04/08 11:30:29;;;;;;;;;4.80;4.00;;;;;9.85;67.47;98873.09;5033442;28;45574;-54
2022/04/08 11:32:55;;;;;;;;;4.60;3.00;;;;;9.98;68.05;98854.63;5031839;28;45498;-51